createdAt,value
2022-08-12T00:01:07.212Z,5.75
2022-08-12T00:03:53.405Z,6.63
2022-08-12T00:06:40.035Z,7.57
2022-08-12T00:09:27.276Z,7.13
2022-08-12T00:12:13.421Z,6.57
2022-08-12T00:15:01.413Z,6.93
2022-08-12T00:17:48.655Z,6.38
2022-08-12T00:20:34.921Z,5.82
2022-08-12T00:23:21.043Z,6.20
2022-08-12T00:26:23.670Z,6.40
2022-08-12T00:29:14.381Z,6.30
2022-08-12T00:32:01.524Z,6.25
2022-08-12T00:34:49.326Z,6.35
2022-08-12T00:37:40.008Z,5.90
2022-08-12T00:40:31.458Z,6.15
2022-08-12T00:43:00.121Z,6.03
2022-08-12T00:45:47.781Z,6.15
2022-08-12T00:48:17.307Z,5.78
2022-08-12T00:50:48.610Z,6.55
2022-08-12T00:53:19.143Z,5.80
2022-08-12T00:55:48.108Z,5.30
2022-08-12T00:58:23.856Z,5.68
2022-08-12T01:00:52.030Z,5.90
2022-08-12T01:03:20.907Z,4.78
2022-08-12T01:06:10.207Z,7.68
2022-08-12T01:08:56.488Z,8.18
2022-08-12T01:11:32.482Z,6.07
2022-08-12T01:14:02.465Z,5.60
2022-08-12T01:16:30.931Z,5.88
2022-08-12T01:19:00.764Z,5.72
2022-08-12T01:21:28.397Z,6.05
2022-08-12T01:24:29.846Z,6.20
2022-08-12T01:27:01.605Z,6.30
2022-08-12T01:29:34.850Z,5.47
2022-08-12T01:32:09.065Z,6.40
2022-08-12T01:34:39.041Z,5.93
2022-08-12T01:37:09.266Z,7.78
2022-08-12T01:40:35.318Z,6.53
2022-08-12T01:42:48.846Z,6.97
2022-08-12T01:45:17.988Z,6.80
2022-08-12T01:48:16.722Z,6.13
2022-08-12T01:51:06.575Z,6.05
2022-08-12T01:54:06.035Z,5.93
2022-08-12T01:56:44.024Z,6.20
2022-08-12T01:59:36.105Z,5.78
2022-08-12T02:02:09.546Z,6.18
2022-08-12T02:05:03.118Z,6.05
2022-08-12T02:08:19.050Z,7.50
2022-08-12T02:11:20.318Z,5.60
2022-08-12T02:14:15.785Z,6.20
2022-08-12T02:16:46.848Z,8.07
2022-08-12T02:20:16.730Z,6.10
2022-08-12T02:22:45.566Z,7.20
2022-08-12T02:25:16.249Z,6.07
2022-08-12T02:27:46.567Z,6.68
2022-08-12T02:30:19.525Z,6.18
2022-08-12T02:32:49.527Z,6.35
2022-08-12T02:35:22.929Z,5.47
2022-08-12T02:37:56.066Z,6.40
2022-08-12T02:40:25.795Z,6.80
2022-08-12T02:43:08.473Z,6.88
2022-08-12T02:45:54.050Z,6.32
2022-08-12T02:49:01.171Z,5.80
2022-08-12T02:51:39.442Z,6.25
2022-08-12T02:54:08.025Z,5.40
2022-08-12T02:56:38.140Z,6.22
2022-08-12T02:59:12.485Z,7.15
2022-08-12T03:01:54.423Z,6.97
2022-08-12T03:04:43.638Z,6.32
2022-08-12T03:07:15.033Z,7.35
2022-08-12T03:10:07.227Z,6.20
2022-08-12T03:12:49.499Z,5.50
2022-08-12T03:15:24.081Z,6.30
2022-08-12T03:18:28.381Z,5.88
2022-08-12T03:20:58.710Z,6.70
2022-08-12T03:23:29.830Z,6.35
2022-08-12T03:26:02.100Z,6.50
2022-08-12T03:28:51.329Z,8.48
2022-08-12T03:31:22.451Z,7.03
2022-08-12T03:34:01.856Z,6.32
2022-08-12T03:36:35.395Z,6.43
2022-08-12T03:39:16.185Z,6.25
2022-08-12T03:42:07.828Z,7.82
2022-08-12T03:45:24.401Z,8.18
2022-08-12T03:48:33.236Z,7.00
2022-08-12T03:51:22.129Z,6.78
2022-08-12T03:54:11.321Z,6.43
2022-08-12T03:56:58.400Z,6.32
2022-08-12T03:59:44.478Z,6.70
2022-08-12T04:02:16.183Z,5.78
2022-08-12T04:04:45.825Z,6.65
2022-08-12T04:07:14.538Z,6.60
2022-08-12T04:09:44.374Z,5.50
2022-08-12T04:12:32.718Z,7.10
2022-08-12T04:15:01.727Z,7.93
2022-08-12T04:17:30.627Z,6.57
2022-08-12T04:19:59.247Z,6.72
2022-08-12T04:22:30.926Z,6.57
2022-08-12T04:25:03.114Z,5.10
2022-08-12T04:27:32.394Z,6.82
2022-08-12T04:30:16.556Z,6.30
2022-08-12T04:32:51.042Z,5.65
2022-08-12T04:35:20.062Z,6.47
2022-08-12T04:37:58.535Z,8.75
2022-08-12T04:40:31.902Z,6.57
2022-08-12T04:43:01.680Z,6.00
2022-08-12T04:45:31.557Z,7.38
2022-08-12T04:48:00.071Z,6.80
2022-08-12T04:50:36.128Z,9.63
2022-08-12T04:53:06.987Z,6.57
2022-08-12T04:55:39.156Z,7.82
2022-08-12T04:58:07.718Z,7.13
2022-08-12T05:00:36.191Z,6.72
2022-08-12T05:03:06.349Z,7.82
2022-08-12T05:05:36.524Z,8.82
2022-08-12T05:08:08.147Z,10.35
2022-08-12T05:10:36.267Z,7.38
2022-08-12T05:13:24.724Z,6.93
2022-08-12T05:16:04.641Z,8.38
2022-08-12T05:18:39.413Z,7.45
2022-08-12T05:21:08.579Z,8.35
2022-08-12T05:23:40.631Z,7.22
2022-08-12T05:26:08.895Z,7.65
2022-08-12T05:28:37.509Z,7.75
2022-08-12T05:31:05.259Z,9.25
2022-08-12T05:33:38.023Z,7.93
2022-08-12T05:36:12.941Z,7.13
2022-08-12T05:38:56.458Z,9.40
2022-08-12T05:41:32.570Z,9.95
2022-08-12T05:44:06.307Z,9.10
2022-08-12T05:46:34.853Z,7.40
2022-08-12T05:49:03.276Z,7.45
2022-08-12T05:51:40.322Z,8.85
2022-08-12T05:54:11.517Z,7.25
2022-08-12T05:56:41.059Z,8.15
2022-08-12T05:59:11.437Z,5.75
2022-08-12T06:02:10.590Z,7.32
2022-08-12T06:04:28.127Z,8.38
2022-08-12T06:06:55.938Z,6.75
2022-08-12T06:09:23.508Z,7.72
2022-08-12T06:12:04.989Z,8.55
2022-08-12T06:14:37.188Z,8.52
2022-08-12T06:17:06.507Z,6.30
2022-08-12T06:20:27.587Z,6.70
2022-08-12T06:22:22.011Z,6.78
2022-08-12T06:24:50.088Z,7.63
2022-08-12T06:27:19.305Z,6.80
2022-08-12T06:30:08.636Z,6.20
2022-08-12T06:32:35.321Z,7.43
2022-08-12T06:35:25.182Z,6.80
2022-08-12T06:37:57.355Z,5.93
2022-08-12T06:40:44.301Z,6.40
2022-08-12T06:43:13.476Z,6.38
2022-08-12T06:45:47.506Z,6.57
2022-08-12T06:48:15.596Z,6.40
2022-08-12T06:50:44.647Z,7.85
2022-08-12T06:53:12.903Z,6.28
2022-08-12T06:55:58.551Z,6.78
2022-08-12T06:58:27.015Z,6.95
2022-08-12T07:00:56.223Z,8.63
2022-08-12T07:03:30.465Z,5.18
2022-08-12T07:06:06.625Z,5.72
2022-08-12T07:08:35.893Z,6.47
2022-08-12T07:11:06.526Z,6.65
2022-08-12T07:13:48.623Z,6.07
2022-08-12T07:17:06.641Z,6.53
2022-08-12T07:19:40.552Z,6.25
2022-08-12T07:22:14.411Z,6.35
2022-08-12T07:24:42.599Z,5.93
2022-08-12T07:27:10.397Z,5.18
2022-08-12T07:30:03.826Z,5.85
2022-08-12T07:32:29.340Z,5.90
2022-08-12T07:34:57.304Z,6.88
2022-08-12T07:37:24.847Z,7.38
2022-08-12T07:39:59.607Z,5.80
2022-08-12T07:42:29.610Z,5.93
2022-08-12T07:44:57.335Z,7.65
2022-08-12T07:47:27.548Z,7.25
2022-08-12T07:50:04.775Z,6.57
2022-08-12T07:52:38.716Z,6.63
2022-08-12T07:55:06.996Z,6.72
2022-08-12T07:57:34.961Z,6.28
2022-08-12T08:00:06.123Z,7.65
2022-08-12T08:02:37.753Z,6.35
2022-08-12T08:05:06.145Z,6.50
2022-08-12T08:07:33.913Z,4.97
2022-08-12T08:10:05.274Z,9.18
2022-08-12T08:12:51.620Z,6.03
2022-08-12T08:15:20.999Z,5.97
2022-08-12T08:18:04.105Z,6.63
2022-08-12T08:20:41.372Z,6.15
2022-08-12T08:23:15.618Z,5.22
2022-08-12T08:25:44.004Z,5.90
2022-08-12T08:28:14.728Z,4.25
2022-08-12T08:30:44.637Z,4.10
2022-08-12T08:33:22.868Z,5.00
2022-08-12T08:35:54.337Z,6.43
2022-08-12T08:38:33.086Z,5.20
2022-08-12T08:42:15.369Z,5.13
2022-08-12T08:44:11.563Z,5.70
2022-08-12T08:46:43.857Z,4.90
2022-08-12T08:49:12.582Z,5.32
2022-08-12T08:51:40.598Z,5.38
2022-08-12T08:54:08.958Z,6.13
2022-08-12T08:56:50.416Z,4.85
2022-08-12T08:59:19.634Z,5.68
2022-08-12T09:01:48.317Z,4.65
2022-08-12T09:05:09.924Z,4.03
2022-08-12T09:07:18.204Z,4.75
2022-08-12T09:10:03.438Z,4.38
2022-08-12T09:12:54.278Z,4.35
2022-08-12T09:15:34.924Z,5.00
2022-08-12T09:20:55.724Z,6.25
2022-08-12T09:26:11.278Z,5.25
2022-08-12T09:28:39.434Z,5.25
2022-08-12T09:32:03.429Z,4.53
2022-08-12T09:34:25.242Z,5.32
2022-08-12T09:36:58.082Z,4.85
2022-08-12T09:40:06.163Z,4.40
2022-08-12T09:42:54.314Z,4.68
2022-08-12T09:46:21.185Z,5.38
2022-08-12T09:48:20.054Z,4.55
2022-08-12T09:50:51.694Z,4.82
2022-08-12T09:54:31.577Z,4.80
2022-08-12T09:56:57.082Z,7.28
2022-08-12T09:59:10.179Z,4.60
2022-08-12T10:02:42.339Z,6.15
2022-08-12T10:04:26.671Z,5.80
2022-08-12T10:06:58.091Z,8.82
2022-08-12T10:09:28.899Z,4.30
2022-08-12T10:12:33.408Z,5.40
2022-08-12T10:15:02.441Z,2.63
2022-08-12T10:17:30.147Z,5.28
2022-08-12T10:19:59.829Z,4.35
2022-08-12T10:22:49.270Z,4.20
2022-08-12T10:26:35.247Z,5.60
2022-08-12T10:28:41.159Z,6.40
2022-08-12T10:31:28.532Z,3.85
2022-08-12T10:34:25.864Z,4.22
2022-08-12T10:37:22.554Z,4.35
2022-08-12T10:40:01.707Z,4.60
2022-08-12T10:43:00.570Z,5.43
2022-08-12T10:45:30.291Z,4.40
2022-08-12T10:48:07.418Z,4.00
2022-08-12T10:51:01.778Z,5.18
2022-08-12T10:53:44.470Z,4.45
2022-08-12T10:56:15.769Z,3.65
2022-08-12T10:58:46.355Z,3.95
2022-08-12T11:03:01.448Z,5.05
2022-08-12T11:04:27.907Z,5.45
2022-08-12T11:07:05.820Z,4.35
2022-08-12T11:10:00.728Z,4.50
2022-08-12T11:12:54.845Z,6.00
2022-08-12T11:15:24.307Z,4.82
2022-08-12T11:18:03.208Z,4.70
2022-08-12T11:20:31.450Z,3.50
2022-08-12T11:23:03.788Z,6.72
2022-08-12T11:25:57.327Z,4.55
2022-08-12T11:28:33.535Z,5.43
2022-08-12T11:31:03.410Z,4.93
2022-08-12T11:34:06.372Z,4.15
2022-08-12T11:36:22.262Z,3.83
2022-08-12T11:38:51.441Z,4.60
2022-08-12T11:41:30.892Z,4.95
2022-08-12T11:44:33.354Z,4.60
2022-08-12T11:46:51.267Z,5.72
2022-08-12T11:49:31.355Z,5.32
2022-08-12T11:52:02.211Z,3.85
2022-08-12T11:54:31.242Z,4.32
2022-08-12T11:57:02.492Z,4.13
2022-08-12T12:02:21.036Z,3.50
2022-08-12T12:04:53.043Z,4.70
2022-08-12T12:08:36.246Z,3.47
2022-08-12T12:10:20.024Z,3.38
2022-08-12T12:12:49.592Z,3.95
2022-08-12T12:15:24.754Z,3.13
2022-08-12T12:17:54.969Z,3.92
2022-08-12T12:20:27.782Z,3.70
2022-08-12T12:22:58.258Z,3.92
2022-08-12T12:26:07.097Z,3.05
2022-08-12T12:28:36.529Z,5.03
2022-08-12T12:31:04.277Z,4.07
2022-08-12T12:33:46.270Z,3.53
2022-08-12T12:36:23.185Z,3.90
2022-08-12T12:38:54.119Z,2.95
2022-08-12T12:41:21.646Z,6.40
2022-08-12T12:44:13.386Z,3.60
2022-08-12T12:46:56.758Z,5.50
2022-08-12T12:49:26.297Z,5.38
2022-08-12T12:52:19.910Z,4.47
2022-08-12T12:54:53.063Z,3.95
2022-08-12T12:57:35.902Z,3.97
2022-08-12T13:00:18.963Z,4.00
2022-08-12T13:02:55.853Z,4.20
2022-08-12T13:05:29.509Z,5.30
2022-08-12T13:08:27.838Z,2.88
2022-08-12T13:11:00.675Z,2.65
2022-08-12T13:14:07.967Z,4.32
2022-08-12T13:16:20.911Z,4.72
2022-08-12T13:18:50.336Z,5.55
2022-08-12T13:21:33.323Z,2.92
2022-08-12T13:24:09.717Z,3.40
2022-08-12T13:26:40.792Z,4.47
2022-08-12T13:29:11.564Z,4.68
2022-08-12T13:31:46.586Z,4.40
2022-08-12T13:34:34.473Z,4.22
2022-08-12T13:37:09.859Z,4.95
2022-08-12T13:39:39.452Z,4.90
2022-08-12T13:42:13.737Z,4.63
2022-08-12T13:44:43.099Z,5.55
2022-08-12T13:47:18.590Z,4.43
2022-08-12T13:49:55.054Z,6.13
2022-08-12T13:52:25.652Z,3.63
2022-08-12T13:54:54.174Z,4.07
2022-08-12T13:57:26.639Z,4.40
2022-08-12T13:59:55.641Z,4.70
2022-08-12T14:02:28.252Z,4.10
2022-08-12T14:04:56.981Z,4.38
2022-08-12T14:07:25.815Z,3.88
2022-08-12T14:10:16.479Z,3.08
2022-08-12T14:12:53.083Z,4.00
2022-08-12T14:15:36.713Z,4.55
2022-08-12T14:18:16.307Z,4.85
2022-08-12T14:20:48.281Z,4.07
2022-08-12T14:24:05.541Z,4.38
2022-08-12T14:26:17.067Z,4.47
2022-08-12T14:28:57.233Z,4.22
2022-08-12T14:31:29.631Z,5.85
2022-08-12T14:34:00.253Z,6.18
2022-08-12T14:36:33.218Z,4.45
2022-08-12T14:39:06.584Z,4.35
2022-08-12T14:41:37.134Z,3.67
2022-08-12T14:44:59.065Z,4.75
2022-08-12T14:47:07.787Z,4.55
2022-08-12T14:50:37.454Z,4.22
2022-08-12T14:53:26.221Z,3.90
2022-08-12T14:58:03.003Z,3.85
2022-08-12T15:00:52.430Z,4.45
2022-08-12T15:03:52.402Z,7.85
2022-08-12T15:06:43.718Z,5.07
2022-08-12T15:09:08.194Z,4.53
2022-08-12T15:11:54.722Z,7.38
2022-08-12T15:14:27.509Z,4.65
2022-08-12T15:16:55.286Z,4.68
2022-08-12T15:20:12.492Z,4.50
2022-08-12T15:22:35.528Z,5.22
2022-08-12T15:24:58.194Z,4.55
2022-08-12T15:28:11.062Z,3.72
2022-08-12T15:30:14.286Z,5.20
2022-08-12T15:32:44.254Z,4.82
2022-08-12T15:35:16.954Z,4.20
2022-08-12T15:38:09.275Z,5.80
2022-08-12T15:40:33.706Z,5.60
2022-08-12T15:43:08.298Z,5.63
2022-08-12T15:45:42.567Z,3.90
2022-08-12T15:48:17.056Z,4.05
2022-08-12T15:50:53.105Z,4.20
2022-08-12T15:53:42.958Z,4.43
2022-08-12T15:56:12.614Z,3.35
2022-08-12T15:58:41.760Z,3.80
2022-08-12T16:01:15.425Z,3.20
2022-08-12T16:04:00.812Z,4.47
2022-08-12T16:06:43.477Z,4.10
2022-08-12T16:09:21.680Z,3.55
2022-08-12T16:11:49.646Z,3.45
2022-08-12T16:14:17.237Z,6.25
2022-08-12T16:16:48.695Z,3.83
2022-08-12T16:20:03.426Z,4.70
2022-08-12T16:22:11.395Z,3.58
2022-08-12T16:24:43.921Z,4.63
2022-08-12T16:27:11.918Z,5.45
2022-08-12T16:29:54.199Z,7.15
2022-08-12T16:32:24.269Z,8.98
2022-08-12T16:34:56.058Z,8.00
2022-08-12T16:38:05.026Z,6.43
2022-08-12T16:40:13.770Z,11.18
2022-08-12T16:42:54.302Z,9.70
2022-08-12T16:46:04.512Z,7.95
2022-08-12T16:48:33.975Z,10.57
2022-08-12T16:51:06.083Z,8.02
2022-08-12T16:53:44.461Z,11.93
2022-08-12T16:56:17.339Z,30.88
2022-08-12T16:58:47.376Z,15.88
2022-08-12T17:01:15.847Z,17.13
2022-08-12T17:03:52.385Z,11.10
2022-08-12T17:06:27.699Z,49.17
2022-08-12T17:09:02.974Z,57.10
2022-08-12T17:11:31.348Z,15.27
2022-08-12T17:13:59.617Z,10.98
2022-08-12T17:16:29.975Z,8.23
2022-08-12T17:18:59.643Z,5.70
2022-08-12T17:21:40.568Z,4.90
2022-08-12T17:24:22.569Z,5.18
2022-08-12T17:27:00.204Z,5.35
2022-08-12T17:30:00.376Z,5.28
2022-08-12T17:32:16.804Z,5.55
2022-08-12T17:35:12.431Z,4.45
2022-08-12T17:37:41.030Z,4.47
2022-08-12T17:40:17.593Z,4.53
2022-08-12T17:42:48.187Z,7.18
2022-08-12T17:45:20.154Z,10.38
2022-08-12T17:48:01.421Z,6.10
2022-08-12T17:50:38.002Z,5.97
2022-08-12T17:53:08.153Z,5.90
2022-08-12T17:55:47.549Z,4.97
2022-08-12T17:58:17.978Z,5.60
2022-08-12T18:00:45.980Z,5.47
2022-08-12T18:04:04.204Z,5.18
2022-08-12T18:06:13.979Z,5.43
2022-08-12T18:08:55.060Z,7.38
2022-08-12T18:12:03.965Z,6.70
2022-08-12T18:14:36.658Z,5.78
2022-08-12T18:17:08.537Z,4.70
2022-08-12T18:20:05.050Z,5.65
2022-08-12T18:22:31.597Z,4.25
2022-08-12T18:25:06.759Z,5.22
2022-08-12T18:27:47.157Z,5.22
2022-08-12T18:30:29.192Z,3.80
2022-08-12T18:33:03.627Z,5.72
2022-08-12T18:35:47.302Z,4.78
2022-08-12T18:38:22.721Z,6.63
2022-08-12T18:41:21.936Z,5.05
2022-08-12T18:44:17.088Z,11.88
2022-08-12T18:46:55.853Z,18.27
2022-08-12T18:49:39.669Z,15.88
2022-08-12T18:52:11.758Z,7.88
2022-08-12T18:54:52.927Z,6.55
2022-08-12T18:58:05.867Z,6.82
2022-08-12T19:00:22.298Z,5.85
2022-08-12T19:02:53.732Z,5.30
2022-08-12T19:05:53.311Z,6.35
2022-08-12T19:08:14.384Z,6.50
2022-08-12T19:10:51.145Z,4.55
2022-08-12T19:13:39.662Z,5.57
2022-08-12T19:16:12.778Z,6.22
2022-08-12T19:18:44.866Z,6.20
2022-08-12T19:21:16.612Z,5.20
2022-08-12T19:24:07.721Z,9.10
2022-08-12T19:26:36.101Z,5.70
2022-08-12T19:29:05.328Z,5.15
2022-08-12T19:31:57.531Z,5.50
2022-08-12T19:35:24.088Z,6.30
2022-08-12T19:37:22.961Z,5.55
2022-08-12T19:40:07.672Z,5.13
2022-08-12T19:42:42.590Z,4.45
2022-08-12T19:45:15.595Z,7.13
2022-08-12T19:47:45.010Z,5.45
2022-08-12T19:50:19.766Z,4.88
2022-08-12T19:52:53.408Z,5.15
2022-08-12T19:55:24.393Z,5.93
2022-08-12T19:58:03.358Z,5.10
2022-08-12T20:00:34.448Z,3.90
2022-08-12T20:03:04.773Z,4.60
2022-08-12T20:06:06.897Z,6.20
2022-08-12T20:08:31.435Z,5.45
2022-08-12T20:12:11.830Z,8.02
2022-08-12T20:14:00.536Z,4.65
2022-08-12T20:16:57.279Z,8.43
2022-08-12T20:19:52.079Z,10.00
2022-08-12T20:22:24.495Z,5.03
2022-08-12T20:25:07.423Z,5.95
2022-08-12T20:28:03.174Z,5.65
2022-08-12T20:30:37.352Z,6.07
2022-08-12T20:33:18.295Z,6.07
2022-08-12T20:36:06.788Z,5.68
2022-08-12T20:38:40.124Z,5.30
2022-08-12T20:41:16.193Z,6.68
2022-08-12T20:43:45.859Z,4.72
2022-08-12T20:46:14.013Z,5.80
2022-08-12T20:48:44.543Z,8.75
2022-08-12T20:51:19.037Z,5.18
2022-08-12T20:53:58.434Z,7.07
2022-08-12T20:56:34.962Z,6.05
2022-08-12T20:59:06.489Z,5.03
2022-08-12T21:01:46.047Z,7.18
2022-08-12T21:04:36.594Z,5.38
2022-08-12T21:07:09.473Z,5.65
2022-08-12T21:09:51.285Z,6.10
2022-08-12T21:12:27.901Z,5.88
2022-08-12T21:15:22.857Z,5.47
2022-08-12T21:18:09.167Z,6.82
2022-08-12T21:20:44.949Z,5.88
2022-08-12T21:23:14.069Z,5.47
2022-08-12T21:25:49.168Z,4.97
2022-08-12T21:28:21.161Z,6.03
2022-08-12T21:31:10.664Z,7.07
2022-08-12T21:33:58.610Z,5.88
2022-08-12T21:36:34.117Z,5.95
2022-08-12T21:39:18.418Z,5.25
2022-08-12T21:41:52.698Z,6.00
2022-08-12T21:44:24.616Z,4.90
2022-08-12T21:47:21.461Z,6.93
2022-08-12T21:50:03.060Z,5.00
2022-08-12T21:52:40.994Z,5.82
2022-08-12T21:55:18.261Z,6.88
2022-08-12T21:57:53.414Z,5.35
2022-08-12T22:00:31.956Z,5.10
2022-08-12T22:04:03.437Z,4.68
2022-08-12T22:06:31.529Z,5.45
2022-08-12T22:09:16.711Z,5.45
2022-08-12T22:11:56.978Z,4.88
2022-08-12T22:14:29.044Z,5.88
2022-08-12T22:16:58.428Z,5.47
2022-08-12T22:19:26.840Z,5.28
2022-08-12T22:21:58.306Z,6.03
2022-08-12T22:24:29.888Z,5.97
2022-08-12T22:27:08.210Z,7.75
2022-08-12T22:30:07.297Z,5.15
2022-08-12T22:32:39.161Z,4.28
2022-08-12T22:35:29.279Z,6.65
2022-08-12T22:38:07.818Z,4.63
2022-08-12T22:40:39.531Z,4.80
2022-08-12T22:43:29.874Z,5.25
2022-08-12T22:46:15.628Z,5.40
2022-08-12T22:48:50.292Z,5.68
2022-08-12T22:51:20.331Z,6.60
2022-08-12T22:53:53.032Z,4.95
2022-08-12T22:56:30.986Z,5.80
2022-08-12T22:59:03.093Z,6.80
2022-08-12T23:01:52.610Z,5.45
2022-08-12T23:04:27.730Z,5.18
2022-08-12T23:06:58.467Z,6.47
2022-08-12T23:09:48.734Z,4.72
2022-08-12T23:12:37.471Z,5.68
2022-08-12T23:15:09.296Z,6.43
2022-08-12T23:17:40.919Z,4.35
2022-08-12T23:20:11.041Z,6.05
2022-08-12T23:22:40.219Z,5.40
2022-08-12T23:25:19.146Z,5.82
2022-08-12T23:28:30.089Z,5.68
2022-08-12T23:31:04.579Z,5.93
2022-08-12T23:34:00.229Z,5.00
2022-08-12T23:36:31.750Z,6.65
2022-08-12T23:40:13.158Z,4.95
2022-08-12T23:42:17.967Z,5.20
2022-08-12T23:44:52.523Z,6.53
2022-08-12T23:47:21.709Z,6.20
2022-08-12T23:49:57.860Z,5.78
2022-08-12T23:52:28.571Z,6.07
2022-08-12T23:55:23.351Z,5.20
2022-08-12T23:58:21.702Z,5.68
